Time;durP1;ratioP1;P1;durP2;ratioP2;P2;SDS_P1;SDS_P2;PMS_P1;PMS_P2;Temp;Humidity;BMP_temperature;BMP_pressure;BME280_temperature;BME280_humidity;BME280_pressure;Samples;Min_cycle;Max_cycle;Signal;HPM_P1;HPM_P2
2022/02/26 00:00:16;;;;;;;7.33;4.40;;;2.30;99.90;;;2.99;100.00;99532.63;5032999;28;20464;-78
2022/02/26 00:02:45;;;;;;;9.93;5.10;;;2.20;99.90;;;3.00;100.00;99536.03;5035143;28;20472;-77
2022/02/26 00:05:15;;;;;;;12.50;5.50;;;2.30;99.90;;;2.95;100.00;99540.69;5033918;28;20456;-78
2022/02/26 00:07:45;;;;;;;9.43;4.53;;;2.30;99.90;;;2.92;100.00;99546.03;5032458;28;20460;-78
2022/02/26 00:10:17;;;;;;;14.43;5.23;;;2.30;99.90;;;2.94;100.00;99541.63;5029808;28;20509;-78
2022/02/26 00:12:47;;;;;;;13.07;4.80;;;2.20;99.90;;;2.91;100.00;99541.81;5028897;28;20472;-78
2022/02/26 00:15:17;;;;;;;9.27;4.47;;;2.10;99.90;;;2.96;100.00;99543.16;5029526;28;20465;-78
2022/02/26 00:17:48;;;;;;;9.20;3.80;;;2.20;99.90;;;2.98;100.00;99540.50;5028535;28;20852;-77
2022/02/26 00:20:18;;;;;;;7.50;4.60;;;2.40;99.90;;;2.99;100.00;99547.28;5029664;28;21288;-78
2022/02/26 00:22:47;;;;;;;12.23;4.73;;;2.30;99.90;;;3.01;100.00;99555.78;5029883;28;20514;-78
2022/02/26 00:25:19;;;;;;;9.07;4.47;;;2.30;99.90;;;3.04;100.00;99555.56;5031842;28;20481;-78
2022/02/26 00:27:52;;;;;;;9.10;4.03;;;2.30;99.90;;;3.05;100.00;99545.13;5032406;28;20474;-78
2022/02/26 00:30:22;;;;;;;6.93;3.27;;;2.30;99.90;;;3.02;100.00;99541.91;5030759;28;20524;-78
2022/02/26 00:32:53;;;;;;;7.73;3.40;;;2.30;99.90;;;3.02;100.00;99552.25;5032808;28;20557;-78
2022/02/26 00:35:22;;;;;;;10.57;4.03;;;2.30;99.90;;;3.01;100.00;99550.63;5030703;28;21031;-78
2022/02/26 00:37:53;;;;;;;7.27;4.30;;;2.30;99.90;;;2.98;100.00;99550.81;5028447;28;20554;-78
2022/02/26 00:40:23;;;;;;;7.67;4.03;;;2.40;99.90;;;2.92;100.00;99557.22;5029306;28;20743;-78
2022/02/26 00:42:54;;;;;;;9.93;4.20;;;2.40;99.90;;;2.90;100.00;99559.06;5030249;28;20834;-78
2022/02/26 00:45:24;;;;;;;10.07;3.80;;;2.30;99.90;;;2.92;100.00;99556.38;5029254;28;20462;-78
2022/02/26 00:47:55;;;;;;;7.30;4.20;;;2.30;99.90;;;2.87;100.00;99556.69;5030277;28;20595;-77
2022/02/26 00:50:24;;;;;;;9.07;3.43;;;2.20;99.90;;;2.86;100.00;99564.53;5028384;28;20493;-77
2022/02/26 00:52:54;;;;;;;6.23;3.73;;;2.10;99.90;;;2.88;100.00;99562.69;5029033;28;20561;-78
2022/02/26 00:55:26;;;;;;;14.73;4.70;;;2.30;99.90;;;2.86;100.00;99567.13;5029674;28;20727;-78
2022/02/26 00:57:57;;;;;;;11.67;4.03;;;2.20;99.90;;;2.86;100.00;99564.53;5031341;28;20880;-78
2022/02/26 01:00:25;;;;;;;6.90;3.70;;;2.20;99.90;;;2.84;100.00;99574.16;5033652;28;20543;-78
2022/02/26 01:02:56;;;;;;;9.87;4.27;;;2.30;99.90;;;2.81;100.00;99569.19;5028149;28;20555;-78
2022/02/26 01:05:26;;;;;;;11.67;4.30;;;2.20;99.90;;;2.80;100.00;99573.53;5031379;28;20460;-78
2022/02/26 01:07:57;;;;;;;13.67;3.90;;;2.20;99.90;;;2.81;100.00;99574.38;5031389;28;21059;-78
2022/02/26 01:10:33;;;;;;;6.90;4.10;;;2.10;99.90;;;2.80;100.00;99580.44;5028685;28;20490;-77
2022/02/26 01:13:03;;;;;;;5.37;3.30;;;2.00;99.90;;;2.81;100.00;99584.69;5029563;28;20960;-77
2022/02/26 01:15:33;;;;;;;10.13;3.63;;;2.10;99.90;;;2.76;100.00;99581.56;5031477;28;20469;-78
2022/02/26 01:18:03;;;;;;;15.80;4.07;;;2.00;99.90;;;2.75;100.00;99583.31;5029862;28;20510;-78
2022/02/26 01:20:34;;;;;;;9.80;3.30;;;2.00;99.90;;;2.75;100.00;99574.75;5031344;28;20976;-78
2022/02/26 01:23:04;;;;;;;9.43;3.60;;;1.90;99.90;;;2.75;100.00;99582.50;5031751;28;21025;-78
2022/02/26 01:25:36;;;;;;;6.90;3.20;;;2.00;99.90;;;2.76;100.00;99584.16;5031923;28;20512;-78
2022/02/26 01:28:05;;;;;;;8.00;3.10;;;1.90;99.90;;;2.77;100.00;99578.06;5035959;28;20506;-78
2022/02/26 01:30:35;;;;;;;13.60;3.57;;;1.90;99.90;;;2.78;100.00;99584.88;5034997;28;20496;-78
2022/02/26 01:33:04;;;;;;;10.10;3.80;;;1.90;99.90;;;2.75;100.00;99585.06;5033620;28;20451;-78
2022/02/26 01:35:34;;;;;;;6.90;2.37;;;1.90;99.90;;;2.69;100.00;99585.47;5036673;28;20455;-78
2022/02/26 01:38:04;;;;;;;8.97;3.83;;;1.80;99.90;;;2.68;100.00;99586.41;5035555;28;20450;-78
2022/02/26 01:40:35;;;;;;;9.40;3.27;;;1.80;99.90;;;2.71;100.00;99589.59;5036893;28;20895;-78
2022/02/26 01:43:05;;;;;;;10.50;3.20;;;1.90;99.90;;;2.70;100.00;99598.31;5032806;28;20511;-78
2022/02/26 01:45:34;;;;;;;17.03;3.80;;;2.00;99.90;;;2.71;100.00;99594.78;5035029;28;20491;-78
2022/02/26 01:48:06;;;;;;;6.03;3.00;;;2.00;99.90;;;2.71;100.00;99591.38;5034159;28;20965;-77
2022/02/26 01:50:37;;;;;;;8.87;2.93;;;1.90;99.90;;;2.69;100.00;99598.38;5034661;28;20486;-77
2022/02/26 01:53:07;;;;;;;16.20;3.50;;;1.90;99.90;;;2.69;100.00;99595.81;5035294;28;20449;-78
2022/02/26 01:55:40;;;;;;;6.87;2.73;;;2.00;99.90;;;2.69;100.00;99595.81;5034292;28;20459;-78
2022/02/26 01:58:10;;;;;;;12.87;3.43;;;2.10;99.90;;;2.67;100.00;99597.66;5030442;28;21019;-78
2022/02/26 02:00:41;;;;;;;6.00;3.03;;;2.10;99.90;;;2.67;100.00;99592.50;5012740;28;20472;-78
2022/02/26 02:03:11;;;;;;;5.63;2.90;;;1.90;99.90;;;2.69;100.00;99595.81;5028930;28;20702;-78
2022/02/26 02:05:43;;;;;;;8.40;2.70;;;1.90;99.90;;;2.69;100.00;99596.63;5028173;28;20473;-78
2022/02/26 02:08:12;;;;;;;7.33;3.07;;;1.90;99.90;;;2.72;100.00;99605.94;5028409;28;20491;-77
2022/02/26 02:10:44;;;;;;;13.17;4.37;;;1.90;99.90;;;2.68;100.00;99610.47;5029549;28;20596;-77
2022/02/26 02:13:15;;;;;;;6.67;3.13;;;1.90;99.90;;;2.65;100.00;99620.16;5029631;28;20851;-78
2022/02/26 02:15:46;;;;;;;4.77;3.00;;;1.90;99.90;;;2.66;100.00;99622.66;5029569;28;20471;-78
2022/02/26 02:18:18;;;;;;;8.83;3.43;;;1.80;99.90;;;2.66;100.00;99627.00;5033633;28;20489;-78
2022/02/26 02:20:48;;;;;;;11.67;3.17;;;1.90;99.90;;;2.68;100.00;99627.72;5033033;28;20459;-78
2022/02/26 02:23:18;;;;;;;7.10;2.60;;;1.90;99.90;;;2.71;100.00;99630.13;5034268;28;20481;-78
2022/02/26 02:25:48;;;;;;;7.67;3.23;;;1.90;99.90;;;2.72;100.00;99627.41;5034480;28;20989;-78
2022/02/26 02:28:19;;;;;;;11.30;3.40;;;1.90;99.90;;;2.76;100.00;99622.88;5037429;28;20483;-78
2022/02/26 02:30:49;;;;;;;16.03;3.50;;;1.90;99.90;;;2.77;100.00;99621.97;5035810;28;20484;-78
2022/02/26 02:33:19;;;;;;;8.37;2.83;;;2.00;99.90;;;2.79;100.00;99627.84;5038871;28;20449;-78
2022/02/26 02:35:49;;;;;;;13.00;3.10;;;2.00;99.90;;;2.80;100.00;99629.50;5038716;28;20459;-78
2022/02/26 02:38:21;;;;;;;10.40;3.30;;;2.10;99.90;;;2.80;100.00;99630.34;5037275;28;20438;-78
2022/02/26 02:40:51;;;;;;;6.43;3.00;;;2.20;99.90;;;2.82;100.00;99632.81;5038049;28;20471;-77
2022/02/26 02:43:21;;;;;;;7.30;3.50;;;2.10;99.90;;;2.81;100.00;99636.34;5039878;28;20599;-78
2022/02/26 02:45:51;;;;;;;11.23;3.47;;;2.10;99.90;;;2.81;100.00;99629.41;5035073;28;20463;-78
2022/02/26 02:48:22;;;;;;;10.97;3.70;;;2.20;99.90;;;2.84;100.00;99636.16;5038035;28;20479;-78
2022/02/26 02:50:52;;;;;;;6.80;3.27;;;2.20;99.90;;;2.86;100.00;99640.28;5038862;28;20472;-78
2022/02/26 02:53:25;;;;;;;9.37;3.50;;;2.10;99.90;;;2.87;100.00;99635.94;5038060;28;20551;-78
2022/02/26 02:55:55;;;;;;;5.83;3.50;;;2.10;99.90;;;2.88;100.00;99638.41;5038409;28;20749;-77
2022/02/26 02:58:28;;;;;;;9.20;3.00;;;2.10;99.90;;;2.90;100.00;99646.06;5037835;28;20533;-78
2022/02/26 03:00:59;;;;;;;14.30;3.20;;;2.10;99.90;;;2.89;100.00;99644.41;5033949;28;20463;-78
2022/02/26 03:03:31;;;;;;;4.80;3.10;;;2.20;99.90;;;2.85;100.00;99648.09;5032771;28;20542;-78
2022/02/26 03:06:02;;;;;;;7.73;3.20;;;2.20;99.90;;;2.83;100.00;99648.22;5034646;28;20466;-78
2022/02/26 03:08:32;;;;;;;11.77;3.57;;;2.20;99.90;;;2.83;100.00;99644.81;5028504;28;20468;-78
2022/02/26 03:11:02;;;;;;;8.90;3.00;;;2.10;99.90;;;2.83;100.00;99650.81;5033185;28;20599;-78
2022/02/26 03:13:34;;;;;;;7.60;2.90;;;2.10;99.90;;;2.82;100.00;99637.97;5032352;28;20487;-78
2022/02/26 03:16:03;;;;;;;5.33;3.20;;;2.10;99.90;;;2.86;100.00;99645.44;5031112;28;20469;-78
2022/02/26 03:18:33;;;;;;;9.33;2.80;;;2.10;99.90;;;2.87;100.00;99646.28;5029967;28;20489;-78
2022/02/26 03:21:03;;;;;;;10.83;3.17;;;2.10;99.90;;;2.84;100.00;99646.47;5030444;28;20555;-78
2022/02/26 03:23:35;;;;;;;3.87;2.47;;;2.10;99.90;;;2.83;100.00;99640.47;5033238;28;20976;-78
2022/02/26 03:26:05;;;;;;;7.00;4.07;;;2.30;99.90;;;2.79;100.00;99643.34;5033682;28;20921;-78
2022/02/26 03:28:37;;;;;;;11.70;3.37;;;2.10;99.90;;;2.83;100.00;99644.81;5034164;28;20496;-78
2022/02/26 03:31:07;;;;;;;7.53;2.97;;;2.10;99.90;;;2.83;100.00;99642.22;5037571;28;20521;-78
2022/02/26 03:33:37;;;;;;;7.30;3.20;;;2.10;99.90;;;2.84;100.00;99646.47;5036665;28;20540;-78
2022/02/26 03:36:06;;;;;;;7.13;3.00;;;2.10;99.90;;;2.84;100.00;99656.81;5037751;28;20456;-78
2022/02/26 03:38:42;;;;;;;6.40;3.13;;;2.10;99.90;;;2.84;100.00;99654.22;5038182;28;20443;-78
2022/02/26 03:41:13;;;;;;;4.60;3.07;;;2.10;99.90;;;2.84;100.00;99651.66;5038057;28;20501;-78
2022/02/26 03:43:43;;;;;;;6.50;2.70;;;2.10;99.90;;;2.80;100.00;99660.50;5038111;28;20448;-78
2022/02/26 03:46:14;;;;;;;14.67;3.40;;;2.10;99.90;;;2.77;100.00;99655.53;5036645;28;20551;-78
2022/02/26 03:48:45;;;;;;;11.60;2.97;;;2.10;99.90;;;2.73;100.00;99667.00;5034389;28;20449;-78
2022/02/26 03:51:15;;;;;;;7.30;2.73;;;1.90;99.90;;;2.72;100.00;99668.75;5037171;28;20494;-78
2022/02/26 03:53:47;;;;;;;11.37;3.33;;;1.90;99.90;;;2.78;100.00;99667.50;5036620;28;20447;-77
2022/02/26 03:56:17;;;;;;;6.47;3.20;;;1.90;99.90;;;2.81;100.00;99677.66;5038115;28;20499;-77
2022/02/26 03:58:49;;;;;;;7.63;3.93;;;2.00;99.90;;;2.84;100.00;99683.47;5038654;28;20467;-78
2022/02/26 04:01:20;;;;;;;5.17;3.30;;;2.00;99.90;;;2.84;100.00;99682.63;5037362;28;20808;-77
2022/02/26 04:03:51;;;;;;;10.00;3.30;;;2.10;99.90;;;2.82;100.00;99687.06;5037114;28;20468;-77
2022/02/26 04:06:23;;;;;;;13.73;4.63;;;2.10;99.90;;;2.80;100.00;99687.16;5035903;28;20499;-78
2022/02/26 04:08:55;;;;;;;15.07;3.40;;;2.10;99.90;;;2.82;100.00;99684.47;5036840;28;20496;-78
2022/02/26 04:11:23;;;;;;;6.80;3.57;;;2.10;99.90;;;2.83;100.00;99686.97;5031129;28;20487;-78
2022/02/26 04:13:54;;;;;;;12.70;4.03;;;2.10;99.90;;;2.85;100.00;99699.78;5032369;28;20467;-78
2022/02/26 04:16:25;;;;;;;3.43;2.60;;;2.10;99.90;;;2.83;100.00;99701.63;5031048;28;20476;-78
2022/02/26 04:18:54;;;;;;;8.57;2.47;;;2.00;99.90;;;2.83;100.00;99701.63;5034415;28;20497;-78
2022/02/26 04:21:25;;;;;;;6.03;3.00;;;2.10;99.90;;;2.83;100.00;99702.47;5032245;28;20469;-77
2022/02/26 04:23:56;;;;;;;11.63;3.90;;;2.00;99.90;;;2.84;100.00;99703.31;5034862;28;20461;-78
2022/02/26 04:26:27;;;;;;;9.93;3.40;;;2.10;99.90;;;2.82;100.00;99710.31;5035751;28;20449;-78
2022/02/26 04:28:57;;;;;;;9.80;3.50;;;2.00;99.90;;;2.83;100.00;99706.81;5033729;28;20846;-78
2022/02/26 04:31:27;;;;;;;7.33;3.67;;;2.10;99.90;;;2.81;100.00;99713.84;5037080;28;20458;-78
2022/02/26 04:33:58;;;;;;;10.90;2.70;;;2.10;99.90;;;2.78;100.00;99709.66;5035136;28;20457;-78
2022/02/26 04:36:28;;;;;;;8.47;3.20;;;2.20;99.90;;;2.78;100.00;99714.84;5031210;28;20464;-83
2022/02/26 04:38:59;;;;;;;11.77;3.40;;;2.20;99.90;;;2.79;100.00;99720.84;5012851;28;20954;-78
2022/02/26 04:41:30;;;;;;;6.30;2.97;;;2.20;99.90;;;2.79;100.00;99724.25;5033384;28;20519;-84
2022/02/26 04:44:00;;;;;;;7.60;3.07;;;2.10;99.90;;;2.79;100.00;99731.16;5029430;28;20580;-80
2022/02/26 04:46:29;;;;;;;10.30;3.00;;;2.10;99.90;;;2.76;100.00;99732.19;5032053;28;20616;-77
2022/02/26 04:48:59;;;;;;;6.53;3.00;;;2.20;99.90;;;2.76;100.00;99721.84;5031608;28;20472;-77
2022/02/26 04:51:29;;;;;;;7.10;3.30;;;2.20;99.90;;;2.77;100.00;99722.69;5034612;28;20457;-78
2022/02/26 04:54:01;;;;;;;5.67;2.80;;;2.10;99.90;;;2.78;100.00;99729.50;5030097;28;20945;-83
2022/02/26 04:56:31;;;;;;;8.40;3.37;;;2.10;99.90;;;2.78;100.00;99730.31;5030610;28;20497;-77
2022/02/26 04:59:02;;;;;;;6.63;2.70;;;2.00;99.90;;;2.76;100.00;99723.59;5036746;28;20467;-77
2022/02/26 05:01:32;;;;;;;7.33;2.57;;;2.00;99.90;;;2.76;100.00;99727.03;5036275;28;20456;-78
2022/02/26 05:04:02;;;;;;;5.73;2.83;;;2.00;99.90;;;2.79;100.00;99726.00;5035489;28;20839;-78
2022/02/26 05:06:32;;;;;;;11.57;3.53;;;2.00;99.90;;;2.79;100.00;99736.31;5036142;28;20464;-78
2022/02/26 05:09:03;;;;;;;4.90;2.90;;;2.00;99.90;;;2.78;100.00;99735.50;5036075;28;20467;-77
2022/02/26 05:11:33;;;;;;;5.20;3.27;;;2.10;99.90;;;2.80;100.00;99735.41;5034259;28;20933;-78
2022/02/26 05:14:05;;;;;;;14.73;3.57;;;2.00;99.90;;;2.79;100.00;99736.31;5034778;28;20556;-77
2022/02/26 05:16:43;;;;;;;9.93;3.10;;;2.00;99.90;;;2.79;100.00;99733.75;5035720;28;20488;-85
2022/02/26 05:19:13;;;;;;;12.70;3.70;;;2.00;99.90;;;2.78;100.00;99740.66;5034341;28;20528;-77
2022/02/26 05:21:42;;;;;;;6.67;3.27;;;2.00;99.90;;;2.76;100.00;99741.69;5037322;28;20522;-77
2022/02/26 05:24:13;;;;;;;10.43;2.73;;;2.10;99.90;;;2.72;100.00;99735.88;5035309;28;20477;-76
2022/02/26 05:26:43;;;;;;;6.10;2.27;;;2.10;99.90;;;2.72;100.00;99735.88;5034190;28;20454;-76
2022/02/26 05:29:14;;;;;;;9.60;3.45;;;2.10;99.90;;;2.77;100.00;99738.19;5037125;28;20436;-76
2022/02/26 05:31:43;;;;;;;9.43;3.60;;;2.10;99.90;;;2.79;100.00;99737.16;5038766;28;20214;-76
2022/02/26 05:34:13;;;;;;;8.83;3.23;;;2.10;99.90;;;2.80;100.00;99741.41;5037938;28;20447;-76
2022/02/26 05:36:42;;;;;;;6.67;3.17;;;2.10;99.90;;;2.80;100.00;99744.00;5036335;28;20505;-76
2022/02/26 05:39:13;;;;;;;4.43;3.20;;;2.10;99.90;;;2.73;100.00;99742.72;5039599;28;20970;-76
2022/02/26 05:41:44;;;;;;;7.93;2.80;;;2.10;99.90;;;2.72;100.00;99746.22;5039159;28;20459;-76
2022/02/26 05:44:14;;;;;;;8.00;2.47;;;2.00;99.90;;;2.65;100.00;99749.25;5040021;28;20464;-76
2022/02/26 05:46:43;;;;;;;6.20;3.10;;;2.00;99.90;;;2.64;100.00;99752.78;5037753;28;20436;-76
2022/02/26 05:49:14;;;;;;;6.53;2.73;;;1.90;99.90;;;2.66;100.00;99753.50;5038116;28;20978;-76
2022/02/26 05:51:43;;;;;;;9.93;2.37;;;1.80;99.90;;;2.66;100.00;99756.94;5037275;28;20448;-76
2022/02/26 05:54:17;;;;;;;8.10;2.77;;;1.90;99.90;;;2.62;100.00;99754.63;5035375;28;21110;-76
2022/02/26 05:56:46;;;;;;;4.67;2.00;;;1.80;99.90;;;2.57;100.00;99759.25;5035531;28;20946;-76
2022/02/26 05:59:16;;;;;;;5.13;3.10;;;1.90;99.90;;;2.56;100.00;99755.00;5034811;28;20450;-76
2022/02/26 06:01:46;;;;;;;8.40;2.63;;;1.90;99.90;;;2.54;100.00;99758.50;5035198;28;20451;-76
2022/02/26 06:04:14;;;;;;;10.60;2.20;;;1.80;99.90;;;2.52;100.00;99755.19;5034197;28;21047;-76
2022/02/26 06:06:45;;;;;;;18.67;3.97;;;1.70;99.90;;;2.48;100.00;99758.88;5036966;28;20457;-76
2022/02/26 06:09:17;;;;;;;9.63;2.73;;;1.70;99.90;;;2.44;100.00;99760.00;5037805;28;20538;-76
2022/02/26 06:11:48;;;;;;;5.07;2.33;;;1.80;99.90;;;2.41;100.00;99757.59;5037968;28;20448;-76
2022/02/26 06:14:18;;;;;;;7.13;2.13;;;1.80;99.90;;;2.38;100.00;99755.22;5038571;28;20495;-76
2022/02/26 06:16:48;;;;;;;11.30;3.20;;;1.70;99.90;;;2.35;100.00;99752.81;5035200;28;20439;-76
2022/02/26 06:19:19;;;;;;;7.13;2.83;;;1.70;99.90;;;2.27;100.00;99755.03;5037022;28;20538;-76
2022/02/26 06:21:49;;;;;;;6.90;2.77;;;1.80;99.90;;;2.26;100.00;99752.53;5038464;28;20451;-76
2022/02/26 06:24:19;;;;;;;11.53;3.30;;;1.50;99.90;;;2.21;100.00;99757.97;5039539;28;20452;-76
2022/02/26 06:26:49;;;;;;;5.03;2.20;;;1.60;99.90;;;2.17;100.00;99753.09;5038218;28;20448;-76
2022/02/26 06:29:19;;;;;;;5.33;2.27;;;1.60;99.90;;;2.17;100.00;99758.25;5038666;28;20495;-76
2022/02/26 06:31:49;;;;;;;2.70;2.30;;;1.50;99.90;;;2.16;100.00;99756.59;5038607;28;20445;-76
2022/02/26 06:34:20;;;;;;;4.70;2.47;;;1.40;99.90;;;2.12;100.00;99761.09;5034529;28;20493;-76
2022/02/26 06:36:50;;;;;;;6.63;2.10;;;1.30;99.90;;;2.07;100.00;99760.56;5038606;28;20561;-76
2022/02/26 06:39:22;;;;;;;5.80;2.10;;;1.10;99.90;;;2.02;100.00;99775.47;5038518;28;20442;-76
2022/02/26 06:41:51;;;;;;;10.27;3.90;;;1.20;99.90;;;1.96;100.00;99770.69;5037836;28;20950;-76
2022/02/26 06:44:21;;;;;;;11.20;2.70;;;1.10;99.90;;;1.95;100.00;99761.28;5038015;28;20449;-76
2022/02/26 06:46:51;;;;;;;7.27;2.90;;;1.10;99.90;;;1.93;100.00;99765.69;5038959;28;20527;-76
2022/02/26 06:49:21;;;;;;;10.80;3.27;;;1.10;99.90;;;1.92;100.00;99766.63;5035536;28;20451;-76
2022/02/26 06:51:51;;;;;;;5.77;2.93;;;1.20;99.90;;;1.94;100.00;99775.91;5034352;28;20447;-76
2022/02/26 06:54:22;;;;;;;3.33;2.33;;;1.20;99.90;;;1.94;100.00;99762.22;5037748;28;20907;-76
2022/02/26 06:56:53;;;;;;;6.70;2.70;;;1.20;99.90;;;1.96;100.00;99775.84;5037897;28;20458;-76
2022/02/26 06:59:22;;;;;;;11.57;3.00;;;1.20;99.90;;;1.96;100.00;99781.00;5038290;28;20446;-76
2022/02/26 07:01:53;;;;;;;6.50;2.80;;;1.20;99.90;;;1.92;100.00;99782.09;5040956;28;20450;-76
2022/02/26 07:04:23;;;;;;;5.17;2.40;;;1.20;99.90;;;1.89;100.00;99790.00;5041321;28;20470;-76
2022/02/26 07:06:54;;;;;;;9.00;2.90;;;1.20;99.90;;;1.84;100.00;99792.84;5042175;28;20959;-76
2022/02/26 07:09:27;;;;;;;3.40;2.87;;;1.00;99.90;;;1.85;100.00;99791.09;5041120;28;20476;-75
2022/02/26 07:11:58;;;;;;;7.73;2.93;;;1.10;99.90;;;1.83;100.00;99787.78;5041922;28;20444;-76
2022/02/26 07:14:28;;;;;;;6.97;2.63;;;0.90;99.90;;;1.83;100.00;99791.22;5041690;28;20483;-76
2022/02/26 07:16:58;;;;;;;4.03;2.73;;;0.90;99.90;;;1.88;100.00;99801.22;5041607;28;21104;-76
2022/02/26 07:19:28;;;;;;;4.43;2.47;;;1.10;99.90;;;1.88;100.00;99801.22;5041749;28;20476;-76
2022/02/26 07:21:59;;;;;;;5.80;2.93;;;1.10;99.90;;;1.90;100.00;99805.41;5037919;28;20500;-76
2022/02/26 07:24:30;;;;;;;10.23;2.67;;;1.10;99.90;;;1.95;100.00;99810.28;5039865;28;20450;-76
2022/02/26 07:27:00;;;;;;;7.10;2.40;;;1.10;99.90;;;1.95;100.00;99818.00;5039031;28;21143;-76
2022/02/26 07:29:30;;;;;;;4.17;2.70;;;1.20;99.90;;;1.97;100.00;99821.34;5037495;28;20454;-76
2022/02/26 07:32:00;;;;;;;8.30;3.10;;;1.20;99.90;;;1.98;100.00;99820.41;5038668;28;20953;-76
2022/02/26 07:34:29;;;;;;;8.13;3.30;;;1.10;99.90;;;2.00;100.00;99823.75;5038625;28;20578;-76
2022/02/26 07:36:59;;;;;;;9.63;3.20;;;1.30;99.90;;;1.99;100.00;99822.06;5038625;28;20449;-76
2022/02/26 07:39:30;;;;;;;6.27;2.87;;;1.10;99.90;;;2.00;100.00;99832.31;5038663;28;20806;-76
2022/02/26 07:42:00;;;;;;;7.80;3.13;;;1.10;99.90;;;2.00;100.00;99836.66;5039781;28;20504;-76
2022/02/26 07:44:29;;;;;;;13.90;4.30;;;1.10;99.90;;;1.97;100.00;99836.81;5037130;28;20450;-76
2022/02/26 07:46:59;;;;;;;6.60;2.93;;;1.10;99.90;;;2.00;100.00;99834.06;5037760;28;20888;-76
2022/02/26 07:49:29;;;;;;;11.87;3.37;;;1.20;99.90;;;1.99;100.00;99838.38;5037490;28;20451;-76
2022/02/26 07:51:59;;;;;;;14.73;4.07;;;1.10;99.90;;;1.94;100.00;99847.31;5038683;28;20537;-76
2022/02/26 07:54:30;;;;;;;7.40;3.10;;;1.10;99.90;;;1.92;100.00;99846.56;5037000;28;20569;-76
2022/02/26 07:57:00;;;;;;;7.70;3.03;;;1.10;99.90;;;1.89;100.00;99850.16;5038639;28;20454;-76
2022/02/26 07:59:30;;;;;;;5.43;2.93;;;1.10;99.90;;;1.93;100.00;99845.66;5037287;28;20523;-75
2022/02/26 08:02:00;;;;;;;9.47;3.20;;;1.20;99.90;;;1.96;100.00;99848.06;5037652;28;20458;-76
2022/02/26 08:04:30;;;;;;;7.60;3.40;;;1.20;99.90;;;2.00;100.00;99859.88;5038346;28;21235;-76
2022/02/26 08:07:00;;;;;;;6.13;2.93;;;1.10;99.90;;;2.03;100.00;99862.25;5039986;28;20558;-76
2022/02/26 08:09:31;;;;;;;4.17;2.60;;;1.20;99.90;;;2.06;100.00;99868.97;5040355;28;20471;-76
2022/02/26 08:12:01;;;;;;;4.63;2.90;;;1.30;99.90;;;2.05;100.00;99873.31;5041322;28;20450;-76
2022/02/26 08:14:32;;;;;;;11.03;4.27;;;1.20;99.90;;;2.08;100.00;99868.00;5039672;28;20521;-77
2022/02/26 08:17:05;;;;;;;11.60;3.70;;;1.20;99.90;;;2.12;100.00;99873.81;5041109;28;20456;-76
2022/02/26 08:19:35;;;;;;;6.00;3.37;;;1.30;99.90;;;2.11;100.00;99875.56;5040684;28;20458;-76
2022/02/26 08:22:07;;;;;;;8.83;3.43;;;1.30;99.90;;;2.14;100.00;99869.38;5039684;28;20450;-76
2022/02/26 08:24:37;;;;;;;7.57;3.40;;;1.20;99.90;;;2.09;100.00;99867.06;5040197;28;20448;-76
2022/02/26 08:27:07;;;;;;;14.37;3.67;;;1.20;99.90;;;2.11;100.00;99880.72;5040608;28;20937;-77
2022/02/26 08:29:36;;;;;;;6.03;3.17;;;1.40;99.90;;;2.12;100.00;99884.13;5042122;28;20451;-76
2022/02/26 08:32:08;;;;;;;12.03;3.50;;;1.30;99.90;;;2.15;100.00;99882.22;5040214;28;20453;-76
2022/02/26 08:34:37;;;;;;;17.93;4.00;;;1.30;99.90;;;2.18;100.00;99879.44;5036837;28;20502;-77
2022/02/26 08:37:06;;;;;;;8.17;3.30;;;1.40;99.90;;;2.22;100.00;99880.91;5040399;28;21486;-76
2022/02/26 08:39:36;;;;;;;5.43;3.57;;;1.50;99.90;;;2.23;100.00;99884.31;5040909;28;20789;-76
2022/02/26 08:42:07;;;;;;;10.33;4.27;;;1.40;99.90;;;2.25;100.00;99883.34;5040714;28;20537;-75
2022/02/26 08:44:38;;;;;;;18.03;4.13;;;1.40;99.90;;;2.26;100.00;99877.22;5040771;28;20512;-75
2022/02/26 08:47:08;;;;;;;12.40;3.90;;;1.50;99.90;;;2.27;100.00;99889.22;5040800;28;20451;-76
2022/02/26 08:49:38;;;;;;;6.40;3.70;;;1.50;99.90;;;2.31;100.00;99888.13;5038459;28;20452;-76
2022/02/26 08:52:09;;;;;;;6.70;3.53;;;1.60;99.90;;;2.32;100.00;99889.78;5039972;28;20808;-75
2022/02/26 08:54:41;;;;;;;9.87;4.30;;;1.60;99.90;;;2.35;100.00;99888.78;5039794;28;21089;-75
2022/02/26 08:57:11;;;;;;;8.50;4.27;;;1.60;99.90;;;2.36;100.00;99893.84;5039545;28;20454;-75
2022/02/26 08:59:40;;;;;;;9.40;3.40;;;1.70;99.90;;;2.36;100.00;99898.19;5040048;28;20469;-75
2022/02/26 09:02:10;;;;;;;9.63;3.87;;;1.70;99.90;;;2.39;100.00;99891.09;5039168;28;21038;-75
2022/02/26 09:04:40;;;;;;;13.43;3.70;;;1.60;99.90;;;2.44;100.00;99883.91;5040395;28;21088;-76
2022/02/26 09:07:11;;;;;;;10.07;3.70;;;1.60;99.90;;;2.46;100.00;99889.78;5039599;28;20451;-75
2022/02/26 09:09:42;;;;;;;19.57;3.90;;;1.70;99.90;;;2.47;100.00;99886.28;5039540;28;21119;-75
2022/02/26 09:12:12;;;;;;;10.17;3.63;;;1.70;99.90;;;2.48;100.00;99887.97;5040649;28;20440;-75
2022/02/26 09:14:41;;;;;;;10.20;3.87;;;1.80;99.90;;;2.51;100.00;99892.09;5038936;28;20534;-76
2022/02/26 09:17:12;;;;;;;11.90;3.40;;;1.80;99.90;;;2.53;100.00;99880.75;5039097;28;20875;-75
2022/02/26 09:19:42;;;;;;;10.33;3.13;;;1.80;99.90;;;2.58;100.00;99884.81;5040043;28;20438;-76
2022/02/26 09:22:13;;;;;;;18.07;4.33;;;1.90;99.90;;;2.61;100.00;99889.81;5035736;28;20440;-75
2022/02/26 09:24:43;;;;;;;9.90;3.10;;;1.80;99.90;;;2.61;100.00;99884.63;5034540;28;21004;-76
2022/02/26 09:27:13;;;;;;;9.27;2.90;;;1.90;99.90;;;2.68;100.00;99883.34;5034107;28;20512;-75
2022/02/26 09:29:42;;;;;;;10.47;2.73;;;1.90;99.90;;;2.73;100.00;99881.34;5035845;28;20457;-75
2022/02/26 09:32:12;;;;;;;14.40;2.90;;;2.00;99.90;;;2.76;100.00;99875.97;5035642;28;20452;-76
2022/02/26 09:34:42;;;;;;;11.00;3.00;;;2.00;99.90;;;2.80;100.00;99885.22;5035628;28;20492;-75
2022/02/26 09:37:12;;;;;;;10.73;3.00;;;2.00;99.90;;;2.84;100.00;99886.69;5037453;28;20519;-76
2022/02/26 09:39:42;;;;;;;24.43;3.47;;;2.10;99.90;;;2.87;100.00;99889.09;5035730;28;20457;-76
2022/02/26 09:42:12;;;;;;;13.83;2.90;;;2.10;99.90;;;2.91;100.00;99886.22;5036465;28;20445;-75
2022/02/26 09:44:42;;;;;;;6.40;2.23;;;2.10;99.90;;;2.95;100.00;99881.72;5035678;28;20951;-75
2022/02/26 09:47:13;;;;;;;6.80;2.60;;;2.20;99.90;;;3.00;100.00;99877.91;5036256;28;20468;-76
2022/02/26 09:49:43;;;;;;;11.00;2.80;;;2.30;99.90;;;3.07;100.00;99888.69;5036038;28;20455;-75
2022/02/26 09:52:14;;;;;;;13.57;3.40;;;2.30;99.90;;;3.12;100.00;99883.25;5034564;28;20453;-75
2022/02/26 09:54:48;;;;;;;7.97;2.23;;;2.40;99.90;;;3.16;100.00;99885.53;5036049;28;20496;-76
2022/02/26 09:57:21;;;;;;;17.03;2.97;;;2.40;99.90;;;3.23;100.00;99881.63;5034871;28;20457;-75
2022/02/26 09:59:50;;;;;;;15.40;4.07;;;2.60;99.90;;;3.25;100.00;99876.38;5034944;28;20441;-75
2022/02/26 10:02:30;;;;;;;11.07;2.37;;;2.50;99.90;;;3.33;100.00;99874.97;5033895;28;21016;-75
2022/02/26 10:05:03;;;;;;;24.57;3.23;;;2.70;99.90;;;3.38;100.00;99874.69;5037085;28;20454;-75
2022/02/26 10:07:35;;;;;;;17.80;2.20;;;2.80;99.90;;;3.46;100.00;99873.28;5037414;28;20504;-75
2022/02/26 10:10:16;;;;;;;7.97;2.20;;;2.80;99.90;;;3.54;100.00;99876.19;5039503;28;20446;-75
2022/02/26 10:12:51;;;;;;;8.57;2.23;;;2.90;99.90;;;3.64;100.00;99873.06;5038768;28;20456;-75
2022/02/26 10:15:27;;;;;;;7.83;2.60;;;3.00;99.90;;;3.77;100.00;99879.91;5035743;28;20498;-75
2022/02/26 10:18:06;;;;;;;13.07;2.40;;;3.10;99.90;;;3.86;100.00;99868.13;5038355;28;20477;-75
2022/02/26 10:20:44;;;;;;;9.17;1.57;;;3.30;99.90;;;3.94;100.00;99876.22;5038900;28;20465;-75
2022/02/26 10:23:19;;;;;;;12.47;1.73;;;3.40;99.90;;;4.08;100.00;99871.00;5038665;28;20898;-75
2022/02/26 10:25:51;;;;;;;5.10;1.60;;;3.60;99.90;;;4.18;100.00;99876.38;5038573;28;20451;-75
2022/02/26 10:28:22;;;;;;;9.63;1.50;;;3.70;99.90;;;4.24;100.00;99866.44;5038978;28;20955;-75
2022/02/26 10:30:53;;;;;;;5.60;1.90;;;3.80;99.90;;;4.25;100.00;99868.09;5038586;28;20457;-75
2022/02/26 10:33:24;;;;;;;4.40;1.70;;;3.70;99.90;;;4.31;100.00;99866.84;5039753;28;20436;-75
2022/02/26 10:35:57;;;;;;;8.37;1.60;;;4.00;99.90;;;4.33;100.00;99865.84;5039332;28;20486;-75